sensor_id;sensor_type;location;lat;lon;timestamp;pressure;altitude;pressure_sealevel;temperature;humidity
54562;BME280;69047;53.358;-1.486;2023-08-06T00:00:23;100349.44;;;11.64;72.44
54562;BME280;69047;53.358;-1.486;2023-08-06T00:02:48;100359.03;;;11.87;71.24
54562;BME280;69047;53.358;-1.486;2023-08-06T00:05:14;100361.72;;;11.82;71.71
54562;BME280;69047;53.358;-1.486;2023-08-06T00:07:46;100361.75;;;11.87;71.10
54562;BME280;69047;53.358;-1.486;2023-08-06T00:10:11;100350.59;;;11.78;72.18
54562;BME280;69047;53.358;-1.486;2023-08-06T00:12:37;100364.75;;;11.90;71.06
54562;BME280;69047;53.358;-1.486;2023-08-06T00:15:03;100362.81;;;11.81;71.40
54562;BME280;69047;53.358;-1.486;2023-08-06T00:17:28;100363.91;;;11.85;71.63
54562;BME280;69047;53.358;-1.486;2023-08-06T00:19:54;100366.34;;;11.86;71.31
54562;BME280;69047;53.358;-1.486;2023-08-06T00:22:19;100367.16;;;11.92;70.57
54562;BME280;69047;53.358;-1.486;2023-08-06T00:24:44;100377.91;;;11.66;71.65
54562;BME280;69047;53.358;-1.486;2023-08-06T00:27:10;100375.84;;;11.89;71.11
54562;BME280;69047;53.358;-1.486;2023-08-06T00:29:35;100373.13;;;11.84;70.66
54562;BME280;69047;53.358;-1.486;2023-08-06T00:32:01;100374.38;;;11.61;71.95
54562;BME280;69047;53.358;-1.486;2023-08-06T00:34:26;100377.75;;;11.88;71.16
54562;BME280;69047;53.358;-1.486;2023-08-06T00:36:51;100383.31;;;11.61;71.90
54562;BME280;69047;53.358;-1.486;2023-08-06T00:39:18;100381.81;;;11.86;70.89
54562;BME280;69047;53.358;-1.486;2023-08-06T00:41:44;100382.03;;;11.74;71.73
54562;BME280;69047;53.358;-1.486;2023-08-06T00:44:09;100386.16;;;11.87;71.65
54562;BME280;69047;53.358;-1.486;2023-08-06T00:46:34;100381.56;;;11.87;71.11
54562;BME280;69047;53.358;-1.486;2023-08-06T00:49:00;100381.00;;;11.90;71.27
54562;BME280;69047;53.358;-1.486;2023-08-06T00:51:25;100384.84;;;11.94;71.48
54562;BME280;69047;53.358;-1.486;2023-08-06T00:53:52;100379.72;;;12.03;71.17
54562;BME280;69047;53.358;-1.486;2023-08-06T00:56:18;100384.31;;;12.02;71.04
54562;BME280;69047;53.358;-1.486;2023-08-06T00:58:45;100393.25;;;11.98;71.62
54562;BME280;69047;53.358;-1.486;2023-08-06T01:01:10;100393.16;;;11.78;72.20
54562;BME280;69047;53.358;-1.486;2023-08-06T01:03:36;100396.47;;;11.90;71.38
54562;BME280;69047;53.358;-1.486;2023-08-06T01:06:01;100396.75;;;11.88;71.31
54562;BME280;69047;53.358;-1.486;2023-08-06T01:08:50;100399.19;;;11.90;71.30
54562;BME280;69047;53.358;-1.486;2023-08-06T01:14:20;100392.94;;;11.84;71.70
54562;BME280;69047;53.358;-1.486;2023-08-06T01:16:50;100397.28;;;11.90;70.61
54562;BME280;69047;53.358;-1.486;2023-08-06T01:19:17;100399.66;;;11.72;71.68
54562;BME280;69047;53.358;-1.486;2023-08-06T01:21:42;100409.09;;;11.69;72.34
54562;BME280;69047;53.358;-1.486;2023-08-06T01:24:08;100403.91;;;11.57;72.26
54562;BME280;69047;53.358;-1.486;2023-08-06T01:26:39;100408.91;;;11.76;72.11
54562;BME280;69047;53.358;-1.486;2023-08-06T01:29:15;100409.19;;;11.79;72.42
54562;BME280;69047;53.358;-1.486;2023-08-06T01:31:44;100414.00;;;11.67;72.80
54562;BME280;69047;53.358;-1.486;2023-08-06T01:34:17;100416.50;;;11.74;72.58
54562;BME280;69047;53.358;-1.486;2023-08-06T01:36:43;100420.00;;;11.74;72.70
54562;BME280;69047;53.358;-1.486;2023-08-06T01:39:09;100421.66;;;11.75;72.69
54562;BME280;69047;53.358;-1.486;2023-08-06T01:41:34;100421.84;;;11.68;72.55
54562;BME280;69047;53.358;-1.486;2023-08-06T01:44:00;100419.91;;;11.59;72.75
54562;BME280;69047;53.358;-1.486;2023-08-06T01:46:25;100421.97;;;11.42;73.77
54562;BME280;69047;53.358;-1.486;2023-08-06T01:48:50;100424.53;;;11.58;73.28
54562;BME280;69047;53.358;-1.486;2023-08-06T01:51:16;100424.19;;;11.50;73.43
54562;BME280;69047;53.358;-1.486;2023-08-06T01:53:41;100433.81;;;11.68;72.94
54562;BME280;69047;53.358;-1.486;2023-08-06T01:56:06;100432.22;;;11.72;72.75
54562;BME280;69047;53.358;-1.486;2023-08-06T01:58:32;100426.31;;;11.38;73.96
54562;BME280;69047;53.358;-1.486;2023-08-06T02:00:57;100431.66;;;11.70;73.03
54562;BME280;69047;53.358;-1.486;2023-08-06T02:03:22;100433.66;;;11.47;73.64
54562;BME280;69047;53.358;-1.486;2023-08-06T02:05:48;100441.03;;;11.57;73.25
54562;BME280;69047;53.358;-1.486;2023-08-06T02:08:13;100432.94;;;11.62;73.17
54562;BME280;69047;53.358;-1.486;2023-08-06T02:10:38;100441.06;;;11.62;72.84
54562;BME280;69047;53.358;-1.486;2023-08-06T02:13:04;100439.47;;;11.66;72.91
54562;BME280;69047;53.358;-1.486;2023-08-06T02:15:29;100445.72;;;11.66;72.74
54562;BME280;69047;53.358;-1.486;2023-08-06T02:17:54;100443.00;;;11.61;72.99
54562;BME280;69047;53.358;-1.486;2023-08-06T02:20:20;100444.69;;;11.73;72.46
54562;BME280;69047;53.358;-1.486;2023-08-06T02:22:45;100446.59;;;11.72;73.18
54562;BME280;69047;53.358;-1.486;2023-08-06T02:25:10;100442.81;;;11.73;71.93
54562;BME280;69047;53.358;-1.486;2023-08-06T02:27:37;100445.03;;;11.44;73.70
54562;BME280;69047;53.358;-1.486;2023-08-06T02:30:02;100449.16;;;11.15;74.97
54562;BME280;69047;53.358;-1.486;2023-08-06T02:32:29;100450.88;;;11.26;74.82
54562;BME280;69047;53.358;-1.486;2023-08-06T02:34:56;100447.69;;;11.34;73.52
54562;BME280;69047;53.358;-1.486;2023-08-06T02:37:22;100444.09;;;11.24;73.95
54562;BME280;69047;53.358;-1.486;2023-08-06T02:39:47;100433.84;;;11.73;71.51
54562;BME280;69047;53.358;-1.486;2023-08-06T02:42:12;100437.69;;;11.77;71.47
54562;BME280;69047;53.358;-1.486;2023-08-06T02:44:38;100434.66;;;11.73;71.59
54562;BME280;69047;53.358;-1.486;2023-08-06T02:47:03;100435.22;;;11.80;71.59
54562;BME280;69047;53.358;-1.486;2023-08-06T02:49:29;100439.88;;;11.90;71.20
54562;BME280;69047;53.358;-1.486;2023-08-06T02:51:54;100445.91;;;12.02;70.33
54562;BME280;69047;53.358;-1.486;2023-08-06T02:54:20;100444.19;;;11.86;71.11
54562;BME280;69047;53.358;-1.486;2023-08-06T02:56:45;100449.38;;;11.92;70.85
54562;BME280;69047;53.358;-1.486;2023-08-06T02:59:12;100444.78;;;11.93;70.77
54562;BME280;69047;53.358;-1.486;2023-08-06T03:01:38;100450.66;;;11.75;71.51
54562;BME280;69047;53.358;-1.486;2023-08-06T03:04:03;100439.34;;;11.88;70.77
54562;BME280;69047;53.358;-1.486;2023-08-06T03:06:29;100443.75;;;12.04;69.92
54562;BME280;69047;53.358;-1.486;2023-08-06T03:08:54;100441.56;;;12.01;70.14
54562;BME280;69047;53.358;-1.486;2023-08-06T03:11:20;100450.72;;;11.85;69.93
54562;BME280;69047;53.358;-1.486;2023-08-06T03:13:47;100450.50;;;11.91;69.88
54562;BME280;69047;53.358;-1.486;2023-08-06T03:16:12;100446.03;;;11.70;71.15
54562;BME280;69047;53.358;-1.486;2023-08-06T03:18:37;100444.47;;;11.84;70.20
54562;BME280;69047;53.358;-1.486;2023-08-06T03:21:03;100444.66;;;11.68;71.37
54562;BME280;69047;53.358;-1.486;2023-08-06T03:23:28;100445.81;;;11.77;71.12
54562;BME280;69047;53.358;-1.486;2023-08-06T03:25:53;100434.25;;;11.54;71.96
54562;BME280;69047;53.358;-1.486;2023-08-06T03:28:19;100440.38;;;11.77;70.39
54562;BME280;69047;53.358;-1.486;2023-08-06T03:30:44;100445.00;;;11.81;70.10
54562;BME280;69047;53.358;-1.486;2023-08-06T03:33:09;100438.88;;;11.59;71.59
54562;BME280;69047;53.358;-1.486;2023-08-06T03:35:35;100442.28;;;11.76;70.50
54562;BME280;69047;53.358;-1.486;2023-08-06T03:38:00;100443.63;;;11.74;70.44
54562;BME280;69047;53.358;-1.486;2023-08-06T03:40:26;100449.19;;;11.57;71.21
54562;BME280;69047;53.358;-1.486;2023-08-06T03:42:51;100439.44;;;11.61;70.63
54562;BME280;69047;53.358;-1.486;2023-08-06T03:45:16;100451.13;;;11.66;70.48
54562;BME280;69047;53.358;-1.486;2023-08-06T03:47:42;100459.06;;;11.31;71.56
54562;BME280;69047;53.358;-1.486;2023-08-06T03:50:07;100447.28;;;11.52;70.65
54562;BME280;69047;53.358;-1.486;2023-08-06T03:52:33;100443.75;;;11.52;70.82
54562;BME280;69047;53.358;-1.486;2023-08-06T03:54:58;100442.41;;;11.54;70.73
54562;BME280;69047;53.358;-1.486;2023-08-06T03:57:24;100444.56;;;11.52;70.46
54562;BME280;69047;53.358;-1.486;2023-08-06T03:59:49;100445.09;;;11.49;70.80
54562;BME280;69047;53.358;-1.486;2023-08-06T04:02:14;100447.31;;;11.62;70.43
54562;BME280;69047;53.358;-1.486;2023-08-06T04:04:40;100451.13;;;11.61;70.37
54562;BME280;69047;53.358;-1.486;2023-08-06T04:07:05;100449.84;;;11.74;69.85
54562;BME280;69047;53.358;-1.486;2023-08-06T04:09:30;100454.19;;;11.75;69.34
54562;BME280;69047;53.358;-1.486;2023-08-06T04:11:56;100457.53;;;11.87;68.85
54562;BME280;69047;53.358;-1.486;2023-08-06T04:14:23;100454.50;;;11.79;69.52
54562;BME280;69047;53.358;-1.486;2023-08-06T04:16:49;100450.84;;;11.63;69.51
54562;BME280;69047;53.358;-1.486;2023-08-06T04:19:14;100450.97;;;11.83;68.76
54562;BME280;69047;53.358;-1.486;2023-08-06T04:21:39;100460.66;;;11.69;69.60
54562;BME280;69047;53.358;-1.486;2023-08-06T04:24:05;100455.06;;;11.86;68.44
54562;BME280;69047;53.358;-1.486;2023-08-06T04:26:30;100464.06;;;11.91;69.03
54562;BME280;69047;53.358;-1.486;2023-08-06T04:28:56;100459.38;;;11.77;68.81
54562;BME280;69047;53.358;-1.486;2023-08-06T04:31:21;100463.34;;;11.69;69.22
54562;BME280;69047;53.358;-1.486;2023-08-06T04:33:47;100463.47;;;11.84;69.27
54562;BME280;69047;53.358;-1.486;2023-08-06T04:36:12;100460.44;;;11.76;69.93
54562;BME280;69047;53.358;-1.486;2023-08-06T04:38:37;100462.94;;;11.82;69.03
54562;BME280;69047;53.358;-1.486;2023-08-06T04:41:03;100465.44;;;11.99;69.08
54562;BME280;69047;53.358;-1.486;2023-08-06T04:43:29;100450.34;;;12.23;68.60
54562;BME280;69047;53.358;-1.486;2023-08-06T04:45:55;100473.34;;;12.10;68.29
54562;BME280;69047;53.358;-1.486;2023-08-06T04:48:21;100462.53;;;12.15;67.95
54562;BME280;69047;53.358;-1.486;2023-08-06T04:50:48;100470.63;;;12.05;68.57
54562;BME280;69047;53.358;-1.486;2023-08-06T04:53:14;100465.72;;;12.02;68.43
54562;BME280;69047;53.358;-1.486;2023-08-06T04:55:39;100461.44;;;12.21;68.00
54562;BME280;69047;53.358;-1.486;2023-08-06T04:58:05;100465.56;;;12.29;67.06
54562;BME280;69047;53.358;-1.486;2023-08-06T05:00:31;100479.72;;;12.41;67.06
54562;BME280;69047;53.358;-1.486;2023-08-06T05:02:56;100469.03;;;12.14;67.80
54562;BME280;69047;53.358;-1.486;2023-08-06T05:05:22;100472.38;;;12.42;67.35
54562;BME280;69047;53.358;-1.486;2023-08-06T05:07:48;100471.56;;;12.41;67.33
54562;BME280;69047;53.358;-1.486;2023-08-06T05:10:14;100474.53;;;12.40;67.17
54562;BME280;69047;53.358;-1.486;2023-08-06T05:12:40;100478.13;;;12.45;67.09
54562;BME280;69047;53.358;-1.486;2023-08-06T05:15:06;100478.13;;;12.50;66.44
54562;BME280;69047;53.358;-1.486;2023-08-06T05:17:31;100483.97;;;12.22;68.00
54562;BME280;69047;53.358;-1.486;2023-08-06T05:19:57;100485.94;;;12.37;67.48
54562;BME280;69047;53.358;-1.486;2023-08-06T05:22:22;100487.38;;;12.54;67.13
54562;BME280;69047;53.358;-1.486;2023-08-06T05:24:47;100484.06;;;12.42;67.65
54562;BME280;69047;53.358;-1.486;2023-08-06T05:27:13;100490.28;;;12.43;67.39
54562;BME280;69047;53.358;-1.486;2023-08-06T05:29:38;100484.38;;;12.61;67.02
54562;BME280;69047;53.358;-1.486;2023-08-06T05:32:04;100493.66;;;12.80;66.24
54562;BME280;69047;53.358;-1.486;2023-08-06T05:34:29;100493.91;;;12.78;65.98
54562;BME280;69047;53.358;-1.486;2023-08-06T05:36:55;100489.03;;;12.70;65.96
54562;BME280;69047;53.358;-1.486;2023-08-06T05:39:20;100499.59;;;12.67;66.36
54562;BME280;69047;53.358;-1.486;2023-08-06T05:41:46;100508.59;;;12.77;65.95
54562;BME280;69047;53.358;-1.486;2023-08-06T05:44:11;100515.41;;;12.80;66.21
54562;BME280;69047;53.358;-1.486;2023-08-06T05:46:37;100512.41;;;12.82;65.63
54562;BME280;69047;53.358;-1.486;2023-08-06T05:49:02;100519.50;;;12.93;65.63
54562;BME280;69047;53.358;-1.486;2023-08-06T05:51:29;100514.06;;;12.93;65.87
54562;BME280;69047;53.358;-1.486;2023-08-06T05:53:54;100521.94;;;12.84;65.62
54562;BME280;69047;53.358;-1.486;2023-08-06T05:56:20;100533.88;;;12.78;65.71
54562;BME280;69047;53.358;-1.486;2023-08-06T05:58:45;100531.13;;;12.73;66.02
54562;BME280;69047;53.358;-1.486;2023-08-06T06:01:12;100533.03;;;12.72;66.99
54562;BME280;69047;53.358;-1.486;2023-08-06T06:03:38;100532.53;;;12.86;65.71
54562;BME280;69047;53.358;-1.486;2023-08-06T06:06:04;100536.81;;;12.56;67.12
54562;BME280;69047;53.358;-1.486;2023-08-06T06:08:30;100540.44;;;12.97;65.71
54562;BME280;69047;53.358;-1.486;2023-08-06T06:10:56;100541.53;;;13.01;64.80
54562;BME280;69047;53.358;-1.486;2023-08-06T06:13:22;100539.13;;;13.15;65.09
54562;BME280;69047;53.358;-1.486;2023-08-06T06:15:47;100547.22;;;13.00;64.89
54562;BME280;69047;53.358;-1.486;2023-08-06T06:18:13;100549.41;;;12.93;64.72
54562;BME280;69047;53.358;-1.486;2023-08-06T06:20:39;100550.28;;;13.18;65.53
54562;BME280;69047;53.358;-1.486;2023-08-06T06:23:04;100549.75;;;13.37;65.34
54562;BME280;69047;53.358;-1.486;2023-08-06T06:25:30;100545.94;;;13.43;63.85
54562;BME280;69047;53.358;-1.486;2023-08-06T06:27:55;100546.19;;;13.21;63.73
54562;BME280;69047;53.358;-1.486;2023-08-06T06:30:21;100559.25;;;13.14;65.13
54562;BME280;69047;53.358;-1.486;2023-08-06T06:32:46;100552.44;;;13.57;62.57
54562;BME280;69047;53.358;-1.486;2023-08-06T06:35:12;100557.06;;;13.56;62.73
54562;BME280;69047;53.358;-1.486;2023-08-06T06:37:37;100558.72;;;13.52;63.86
54562;BME280;69047;53.358;-1.486;2023-08-06T06:40:03;100564.69;;;13.39;63.61
54562;BME280;69047;53.358;-1.486;2023-08-06T06:42:29;100567.72;;;13.53;63.26
54562;BME280;69047;53.358;-1.486;2023-08-06T06:44:54;100568.75;;;13.77;63.19
54562;BME280;69047;53.358;-1.486;2023-08-06T06:47:20;100573.66;;;13.80;62.54
54562;BME280;69047;53.358;-1.486;2023-08-06T06:49:45;100572.28;;;13.93;61.92
54562;BME280;69047;53.358;-1.486;2023-08-06T06:52:10;100570.66;;;13.86;62.22
54562;BME280;69047;53.358;-1.486;2023-08-06T06:54:36;100574.50;;;13.75;61.81
54562;BME280;69047;53.358;-1.486;2023-08-06T06:57:02;100569.31;;;13.54;63.82
54562;BME280;69047;53.358;-1.486;2023-08-06T06:59:27;100573.13;;;13.73;62.56
54562;BME280;69047;53.358;-1.486;2023-08-06T07:01:53;100577.44;;;13.89;61.83
54562;BME280;69047;53.358;-1.486;2023-08-06T07:04:18;100584.28;;;13.76;62.81
54562;BME280;69047;53.358;-1.486;2023-08-06T07:06:43;100587.56;;;13.73;62.70
54562;BME280;69047;53.358;-1.486;2023-08-06T07:09:09;100588.91;;;13.76;62.76
54562;BME280;69047;53.358;-1.486;2023-08-06T07:11:34;100590.28;;;13.89;61.57
54562;BME280;69047;53.358;-1.486;2023-08-06T07:14:05;100590.53;;;13.77;62.21
54562;BME280;69047;53.358;-1.486;2023-08-06T07:16:34;100591.63;;;13.91;60.80
54562;BME280;69047;53.358;-1.486;2023-08-06T07:19:00;100595.69;;;13.99;61.08
54562;BME280;69047;53.358;-1.486;2023-08-06T07:21:26;100596.22;;;14.11;62.68
54562;BME280;69047;53.358;-1.486;2023-08-06T07:23:51;100598.69;;;13.92;62.28
54562;BME280;69047;53.358;-1.486;2023-08-06T07:26:17;100592.16;;;14.03;60.17
54562;BME280;69047;53.358;-1.486;2023-08-06T07:28:42;100594.59;;;13.90;61.97
54562;BME280;69047;53.358;-1.486;2023-08-06T07:31:07;100602.19;;;14.08;60.19
54562;BME280;69047;53.358;-1.486;2023-08-06T07:33:33;100596.78;;;14.03;60.00
54562;BME280;69047;53.358;-1.486;2023-08-06T07:35:58;100593.22;;;14.02;59.36
54562;BME280;69047;53.358;-1.486;2023-08-06T07:38:23;100594.59;;;14.05;60.45
54562;BME280;69047;53.358;-1.486;2023-08-06T07:40:49;100602.47;;;14.01;61.19
54562;BME280;69047;53.358;-1.486;2023-08-06T07:43:14;100600.03;;;14.00;59.97
54562;BME280;69047;53.358;-1.486;2023-08-06T07:45:40;100598.13;;;13.95;58.57
54562;BME280;69047;53.358;-1.486;2023-08-06T07:48:05;100607.13;;;14.06;58.48
54562;BME280;69047;53.358;-1.486;2023-08-06T07:50:31;100611.50;;;13.92;60.32
54562;BME280;69047;53.358;-1.486;2023-08-06T07:52:56;100613.59;;;14.40;59.66
54562;BME280;69047;53.358;-1.486;2023-08-06T07:55:21;100623.13;;;14.37;59.23
54562;BME280;69047;53.358;-1.486;2023-08-06T07:57:47;100618.97;;;14.65;58.17
54562;BME280;69047;53.358;-1.486;2023-08-06T08:00:12;100630.97;;;14.59;57.94
54562;BME280;69047;53.358;-1.486;2023-08-06T08:02:38;100628.25;;;14.59;59.09
54562;BME280;69047;53.358;-1.486;2023-08-06T08:05:03;100626.63;;;14.53;58.54
54562;BME280;69047;53.358;-1.486;2023-08-06T08:07:29;100628.31;;;14.34;60.16
54562;BME280;69047;53.358;-1.486;2023-08-06T08:09:56;100626.56;;;14.73;57.97
54562;BME280;69047;53.358;-1.486;2023-08-06T08:12:22;100636.13;;;14.61;59.28
54562;BME280;69047;53.358;-1.486;2023-08-06T08:14:47;100637.78;;;14.62;57.92
54562;BME280;69047;53.358;-1.486;2023-08-06T08:17:13;100636.91;;;14.76;57.13
54562;BME280;69047;53.358;-1.486;2023-08-06T08:19:40;100635.91;;;14.57;57.16
54562;BME280;69047;53.358;-1.486;2023-08-06T08:22:05;100645.69;;;14.58;59.10
54562;BME280;69047;53.358;-1.486;2023-08-06T08:24:30;100633.22;;;14.37;57.32
54562;BME280;69047;53.358;-1.486;2023-08-06T08:26:56;100638.94;;;14.35;58.18
54562;BME280;69047;53.358;-1.486;2023-08-06T08:29:22;100638.81;;;14.81;57.52
54562;BME280;69047;53.358;-1.486;2023-08-06T08:31:48;100637.06;;;15.00;56.83
54562;BME280;69047;53.358;-1.486;2023-08-06T08:34:18;100639.72;;;15.15;56.24
54562;BME280;69047;53.358;-1.486;2023-08-06T08:36:44;100645.84;;;14.92;55.70
54562;BME280;69047;53.358;-1.486;2023-08-06T08:39:12;100654.09;;;14.77;55.84
54562;BME280;69047;53.358;-1.486;2023-08-06T08:41:38;100639.00;;;14.94;56.72
54562;BME280;69047;53.358;-1.486;2023-08-06T08:44:08;100639.13;;;14.69;56.54
54562;BME280;69047;53.358;-1.486;2023-08-06T08:46:36;100628.41;;;14.88;57.55
54562;BME280;69047;53.358;-1.486;2023-08-06T08:49:03;100634.16;;;14.81;56.14
54562;BME280;69047;53.358;-1.486;2023-08-06T08:51:29;100629.53;;;14.77;55.25
54562;BME280;69047;53.358;-1.486;2023-08-06T08:53:55;100640.34;;;15.02;56.01
54562;BME280;69047;53.358;-1.486;2023-08-06T08:56:25;100643.13;;;14.92;56.58
54562;BME280;69047;53.358;-1.486;2023-08-06T08:58:51;100639.38;;;14.73;57.77
54562;BME280;69047;53.358;-1.486;2023-08-06T09:01:21;100642.81;;;14.99;56.93
54562;BME280;69047;53.358;-1.486;2023-08-06T09:03:47;100633.03;;;14.87;56.74
54562;BME280;69047;53.358;-1.486;2023-08-06T09:06:14;100642.13;;;15.22;54.44
54562;BME280;69047;53.358;-1.486;2023-08-06T09:08:50;100642.81;;;14.99;57.72
54562;BME280;69047;53.358;-1.486;2023-08-06T09:11:17;100632.72;;;14.94;55.47
54562;BME280;69047;53.358;-1.486;2023-08-06T09:13:42;100642.53;;;15.00;56.23
54562;BME280;69047;53.358;-1.486;2023-08-06T09:16:07;100652.34;;;15.01;56.22
54562;BME280;69047;53.358;-1.486;2023-08-06T09:18:33;100644.81;;;15.27;55.75
54562;BME280;69047;53.358;-1.486;2023-08-06T09:20:58;100643.44;;;15.34;55.80
54562;BME280;69047;53.358;-1.486;2023-08-06T09:23:30;100651.31;;;15.80;55.80
54562;BME280;69047;53.358;-1.486;2023-08-06T09:25:57;100647.72;;;15.84;55.41
54562;BME280;69047;53.358;-1.486;2023-08-06T09:28:22;100643.00;;;15.61;53.40
54562;BME280;69047;53.358;-1.486;2023-08-06T09:30:50;100652.97;;;15.37;55.10
54562;BME280;69047;53.358;-1.486;2023-08-06T09:33:19;100655.09;;;15.45;56.21
54562;BME280;69047;53.358;-1.486;2023-08-06T09:35:46;100660.88;;;15.82;54.89
54562;BME280;69047;53.358;-1.486;2023-08-06T09:38:12;100658.72;;;16.08;53.93
54562;BME280;69047;53.358;-1.486;2023-08-06T09:40:38;100658.47;;;16.04;54.27
54562;BME280;69047;53.358;-1.486;2023-08-06T09:43:04;100660.03;;;16.16;54.96
54562;BME280;69047;53.358;-1.486;2023-08-06T09:45:35;100659.56;;;16.32;52.41
54562;BME280;69047;53.358;-1.486;2023-08-06T09:48:08;100656.34;;;15.68;55.09
54562;BME280;69047;53.358;-1.486;2023-08-06T09:50:35;100661.81;;;15.63;54.67
54562;BME280;69047;53.358;-1.486;2023-08-06T09:53:03;100668.81;;;16.08;53.48
54562;BME280;69047;53.358;-1.486;2023-08-06T09:55:29;100663.34;;;16.13;53.48
54562;BME280;69047;53.358;-1.486;2023-08-06T09:57:56;100676.56;;;15.95;53.80
54562;BME280;69047;53.358;-1.486;2023-08-06T10:00:22;100673.81;;;16.00;52.15
54562;BME280;69047;53.358;-1.486;2023-08-06T10:02:48;100675.44;;;16.01;50.49
54562;BME280;69047;53.358;-1.486;2023-08-06T10:05:15;100682.22;;;16.09;52.00
54562;BME280;69047;53.358;-1.486;2023-08-06T10:07:42;100676.75;;;15.75;52.43
54562;BME280;69047;53.358;-1.486;2023-08-06T10:10:08;100673.19;;;16.37;51.88
54562;BME280;69047;53.358;-1.486;2023-08-06T10:12:46;100673.97;;;16.14;51.94
54562;BME280;69047;53.358;-1.486;2023-08-06T10:15:15;100680.66;;;15.98;52.99
54562;BME280;69047;53.358;-1.486;2023-08-06T10:17:43;100680.66;;;15.98;52.69
54562;BME280;69047;53.358;-1.486;2023-08-06T10:20:11;100672.97;;;16.63;51.09
54562;BME280;69047;53.358;-1.486;2023-08-06T10:22:36;100678.13;;;16.64;50.80
54562;BME280;69047;53.358;-1.486;2023-08-06T10:25:07;100673.13;;;16.71;51.90
54562;BME280;69047;53.358;-1.486;2023-08-06T10:27:35;100677.72;;;16.47;51.80
54562;BME280;69047;53.358;-1.486;2023-08-06T10:32:52;100683.31;;;16.89;50.32
54562;BME280;69047;53.358;-1.486;2023-08-06T10:35:38;100687.16;;;16.88;49.62
54562;BME280;69047;53.358;-1.486;2023-08-06T10:38:15;100673.19;;;16.90;49.01
54562;BME280;69047;53.358;-1.486;2023-08-06T10:40:42;100674.41;;;16.79;48.88
54562;BME280;69047;53.358;-1.486;2023-08-06T10:43:08;100669.97;;;16.83;49.99
54562;BME280;69047;53.358;-1.486;2023-08-06T10:45:50;100675.44;;;16.59;50.53
54562;BME280;69047;53.358;-1.486;2023-08-06T10:48:30;100666.09;;;16.65;49.54
54562;BME280;69047;53.358;-1.486;2023-08-06T10:50:56;100668.66;;;16.56;50.04
54562;BME280;69047;53.358;-1.486;2023-08-06T10:53:22;100675.34;;;16.69;50.45
54562;BME280;69047;53.358;-1.486;2023-08-06T10:55:47;100677.81;;;16.37;51.67
54562;BME280;69047;53.358;-1.486;2023-08-06T10:58:15;100674.81;;;16.67;49.57
54562;BME280;69047;53.358;-1.486;2023-08-06T11:00:40;100677.31;;;16.87;50.75
54562;BME280;69047;53.358;-1.486;2023-08-06T11:03:06;100690.00;;;16.54;50.20
54562;BME280;69047;53.358;-1.486;2023-08-06T11:05:32;100677.03;;;16.89;50.54
54562;BME280;69047;53.358;-1.486;2023-08-06T11:07:58;100672.66;;;16.88;48.60
54562;BME280;69047;53.358;-1.486;2023-08-06T11:10:23;100678.91;;;17.12;47.66
54562;BME280;69047;53.358;-1.486;2023-08-06T11:12:48;100672.81;;;17.20;48.39
54562;BME280;69047;53.358;-1.486;2023-08-06T11:15:14;100679.06;;;16.78;48.21
54562;BME280;69047;53.358;-1.486;2023-08-06T11:17:40;100686.53;;;17.15;46.26
54562;BME280;69047;53.358;-1.486;2023-08-06T11:20:07;100679.41;;;16.95;47.25
54562;BME280;69047;53.358;-1.486;2023-08-06T11:22:32;100688.53;;;17.09;48.45
54562;BME280;69047;53.358;-1.486;2023-08-06T11:24:58;100687.03;;;16.98;46.34
54562;BME280;69047;53.358;-1.486;2023-08-06T11:27:26;100683.00;;;17.33;46.29
54562;BME280;69047;53.358;-1.486;2023-08-06T11:29:52;100685.84;;;17.47;46.84
54562;BME280;69047;53.358;-1.486;2023-08-06T11:32:17;100688.16;;;17.58;46.64
54562;BME280;69047;53.358;-1.486;2023-08-06T11:34:43;100685.19;;;17.55;45.25
54562;BME280;69047;53.358;-1.486;2023-08-06T11:37:09;100677.69;;;17.23;45.98
54562;BME280;69047;53.358;-1.486;2023-08-06T11:39:36;100681.19;;;17.66;45.80
54562;BME280;69047;53.358;-1.486;2023-08-06T11:42:07;100678.31;;;17.76;46.05
54562;BME280;69047;53.358;-1.486;2023-08-06T11:44:36;100683.78;;;17.57;45.71
54562;BME280;69047;53.358;-1.486;2023-08-06T11:47:03;100669.34;;;17.71;45.71
54562;BME280;69047;53.358;-1.486;2023-08-06T11:52:14;100683.16;;;16.99;46.16
54562;BME280;69047;53.358;-1.486;2023-08-06T11:54:40;100676.06;;;17.41;46.23
54562;BME280;69047;53.358;-1.486;2023-08-06T11:57:05;100680.69;;;17.64;45.95
54562;BME280;69047;53.358;-1.486;2023-08-06T11:59:31;100687.38;;;17.34;47.80
54562;BME280;69047;53.358;-1.486;2023-08-06T12:01:57;100672.47;;;17.64;45.62
54562;BME280;69047;53.358;-1.486;2023-08-06T12:04:22;100673.13;;;17.56;46.33
54562;BME280;69047;53.358;-1.486;2023-08-06T12:06:48;100687.72;;;17.70;46.50
54562;BME280;69047;53.358;-1.486;2023-08-06T12:09:13;100686.03;;;17.50;45.68
54562;BME280;69047;53.358;-1.486;2023-08-06T12:11:38;100676.25;;;17.44;45.25
54562;BME280;69047;53.358;-1.486;2023-08-06T12:14:04;100675.44;;;17.67;46.75
54562;BME280;69047;53.358;-1.486;2023-08-06T12:16:29;100681.78;;;17.63;46.67
54562;BME280;69047;53.358;-1.486;2023-08-06T12:18:54;100688.22;;;18.04;44.25
54562;BME280;69047;53.358;-1.486;2023-08-06T12:21:20;100680.28;;;18.21;45.33
54562;BME280;69047;53.358;-1.486;2023-08-06T12:23:45;100681.25;;;18.44;43.05
54562;BME280;69047;53.358;-1.486;2023-08-06T12:26:11;100680.53;;;18.39;43.48
54562;BME280;69047;53.358;-1.486;2023-08-06T12:28:36;100687.47;;;18.17;45.16
54562;BME280;69047;53.358;-1.486;2023-08-06T12:31:01;100684.97;;;18.35;45.07
54562;BME280;69047;53.358;-1.486;2023-08-06T12:33:27;100679.66;;;18.57;43.22
54562;BME280;69047;53.358;-1.486;2023-08-06T12:35:52;100676.75;;;18.35;44.32
54562;BME280;69047;53.358;-1.486;2023-08-06T12:38:22;100670.31;;;18.58;46.49
54562;BME280;69047;53.358;-1.486;2023-08-06T12:40:47;100669.50;;;18.71;44.29
54562;BME280;69047;53.358;-1.486;2023-08-06T12:43:13;100693.41;;;18.84;44.88